sensor_id;sensor_type;location;lat;lon;timestamp;temperature;humidity
49224;DHT22;35050;51.316;5.994;2022-09-09T00:00:38;17.10;99.90
49224;DHT22;35050;51.316;5.994;2022-09-09T00:03:16;17.10;99.90
49224;DHT22;35050;51.316;5.994;2022-09-09T00:06:21;17.10;99.90
49224;DHT22;35050;51.316;5.994;2022-09-09T00:11:19;16.80;99.90
49224;DHT22;35050;51.316;5.994;2022-09-09T00:13:52;16.90;99.90
49224;DHT22;35050;51.316;5.994;2022-09-09T00:16:25;16.80;99.90
49224;DHT22;35050;51.316;5.994;2022-09-09T00:19:13;16.90;99.90
49224;DHT22;35050;51.316;5.994;2022-09-09T00:24:35;16.80;99.90
49224;DHT22;35050;51.316;5.994;2022-09-09T00:27:16;16.70;99.90
49224;DHT22;35050;51.316;5.994;2022-09-09T00:30:19;16.70;99.90
49224;DHT22;35050;51.316;5.994;2022-09-09T00:32:53;16.80;99.90
49224;DHT22;35050;51.316;5.994;2022-09-09T00:35:29;16.60;99.90
49224;DHT22;35050;51.316;5.994;2022-09-09T00:37:58;16.20;99.90
49224;DHT22;35050;51.316;5.994;2022-09-09T00:40:32;16.40;99.90
49224;DHT22;35050;51.316;5.994;2022-09-09T00:43:32;16.50;99.90
49224;DHT22;35050;51.316;5.994;2022-09-09T00:48:35;16.60;99.90
49224;DHT22;35050;51.316;5.994;2022-09-09T00:57:29;16.50;99.90
49224;DHT22;35050;51.316;5.994;2022-09-09T01:11:00;16.50;99.90
49224;DHT22;35050;51.316;5.994;2022-09-09T01:13:35;16.40;99.90
49224;DHT22;35050;51.316;5.994;2022-09-09T01:16:04;16.50;99.90
49224;DHT22;35050;51.316;5.994;2022-09-09T01:18:36;16.60;99.90
49224;DHT22;35050;51.316;5.994;2022-09-09T01:26:45;16.50;99.90
49224;DHT22;35050;51.316;5.994;2022-09-09T01:29:16;16.60;99.90
49224;DHT22;35050;51.316;5.994;2022-09-09T01:31:53;16.60;99.90
49224;DHT22;35050;51.316;5.994;2022-09-09T01:34:19;16.50;99.90
49224;DHT22;35050;51.316;5.994;2022-09-09T01:36:55;16.40;99.90
49224;DHT22;35050;51.316;5.994;2022-09-09T01:39:22;16.20;99.90
49224;DHT22;35050;51.316;5.994;2022-09-09T01:41:48;16.20;99.90
49224;DHT22;35050;51.316;5.994;2022-09-09T01:44:14;16.20;99.90
49224;DHT22;35050;51.316;5.994;2022-09-09T01:46:39;16.20;99.90
49224;DHT22;35050;51.316;5.994;2022-09-09T01:49:06;16.20;99.90
49224;DHT22;35050;51.316;5.994;2022-09-09T01:51:34;16.30;99.90
49224;DHT22;35050;51.316;5.994;2022-09-09T01:54:01;16.20;99.90
49224;DHT22;35050;51.316;5.994;2022-09-09T01:59:51;16.30;99.90
49224;DHT22;35050;51.316;5.994;2022-09-09T02:02:25;16.30;99.90
49224;DHT22;35050;51.316;5.994;2022-09-09T02:05:00;16.30;99.90
49224;DHT22;35050;51.316;5.994;2022-09-09T02:10:21;16.40;99.90
49224;DHT22;35050;51.316;5.994;2022-09-09T02:12:52;16.30;99.90
49224;DHT22;35050;51.316;5.994;2022-09-09T02:15:34;16.30;99.90
49224;DHT22;35050;51.316;5.994;2022-09-09T02:18:04;16.30;99.90
49224;DHT22;35050;51.316;5.994;2022-09-09T02:20:32;16.30;99.90
49224;DHT22;35050;51.316;5.994;2022-09-09T02:22:59;16.30;99.90
49224;DHT22;35050;51.316;5.994;2022-09-09T02:25:28;16.30;99.90
49224;DHT22;35050;51.316;5.994;2022-09-09T02:27:55;16.20;99.90
49224;DHT22;35050;51.316;5.994;2022-09-09T02:30:23;16.20;99.90
49224;DHT22;35050;51.316;5.994;2022-09-09T02:32:51;16.10;99.90
49224;DHT22;35050;51.316;5.994;2022-09-09T02:35:21;16.10;99.90
49224;DHT22;35050;51.316;5.994;2022-09-09T02:37:51;16.30;99.90
49224;DHT22;35050;51.316;5.994;2022-09-09T02:40:18;16.30;99.90
49224;DHT22;35050;51.316;5.994;2022-09-09T02:42:46;16.10;99.90
49224;DHT22;35050;51.316;5.994;2022-09-09T02:45:16;16.20;99.90
49224;DHT22;35050;51.316;5.994;2022-09-09T02:50:35;16.20;99.90
49224;DHT22;35050;51.316;5.994;2022-09-09T02:53:16;16.20;99.90
49224;DHT22;35050;51.316;5.994;2022-09-09T02:55:58;16.30;99.90
49224;DHT22;35050;51.316;5.994;2022-09-09T02:58:25;16.40;99.90
49224;DHT22;35050;51.316;5.994;2022-09-09T03:00:52;16.40;99.90
49224;DHT22;35050;51.316;5.994;2022-09-09T03:03:19;16.40;99.90
49224;DHT22;35050;51.316;5.994;2022-09-09T03:05:45;16.30;99.90
49224;DHT22;35050;51.316;5.994;2022-09-09T03:08:12;16.30;99.90
49224;DHT22;35050;51.316;5.994;2022-09-09T03:10:39;16.40;99.90
49224;DHT22;35050;51.316;5.994;2022-09-09T03:13:05;16.40;99.90
49224;DHT22;35050;51.316;5.994;2022-09-09T03:15:32;16.30;99.90
49224;DHT22;35050;51.316;5.994;2022-09-09T03:17:58;16.30;99.90
49224;DHT22;35050;51.316;5.994;2022-09-09T03:20:25;16.40;99.90
49224;DHT22;35050;51.316;5.994;2022-09-09T03:22:54;16.40;99.90
49224;DHT22;35050;51.316;5.994;2022-09-09T03:25:21;16.50;99.90
49224;DHT22;35050;51.316;5.994;2022-09-09T03:27:49;16.50;99.90
49224;DHT22;35050;51.316;5.994;2022-09-09T03:30:15;16.50;99.90
49224;DHT22;35050;51.316;5.994;2022-09-09T03:32:41;16.30;99.90
49224;DHT22;35050;51.316;5.994;2022-09-09T03:35:08;16.50;99.90
49224;DHT22;35050;51.316;5.994;2022-09-09T03:37:34;16.30;99.90
49224;DHT22;35050;51.316;5.994;2022-09-09T03:40:00;16.30;99.90
49224;DHT22;35050;51.316;5.994;2022-09-09T03:42:25;16.30;99.90
49224;DHT22;35050;51.316;5.994;2022-09-09T03:44:51;16.20;99.90
49224;DHT22;35050;51.316;5.994;2022-09-09T03:47:21;16.40;99.90
49224;DHT22;35050;51.316;5.994;2022-09-09T03:49:47;16.40;99.90
49224;DHT22;35050;51.316;5.994;2022-09-09T03:52:13;16.50;99.90
49224;DHT22;35050;51.316;5.994;2022-09-09T03:54:39;16.50;99.90
49224;DHT22;35050;51.316;5.994;2022-09-09T03:57:08;16.40;99.90
49224;DHT22;35050;51.316;5.994;2022-09-09T03:59:34;16.50;99.90
49224;DHT22;35050;51.316;5.994;2022-09-09T04:02:00;16.40;99.90
49224;DHT22;35050;51.316;5.994;2022-09-09T04:04:26;16.40;99.90
49224;DHT22;35050;51.316;5.994;2022-09-09T04:06:53;16.50;99.90
49224;DHT22;35050;51.316;5.994;2022-09-09T04:09:18;16.50;99.90
49224;DHT22;35050;51.316;5.994;2022-09-09T04:11:44;16.40;99.90
49224;DHT22;35050;51.316;5.994;2022-09-09T04:14:11;16.50;99.90
49224;DHT22;35050;51.316;5.994;2022-09-09T04:16:38;16.50;99.90
49224;DHT22;35050;51.316;5.994;2022-09-09T04:19:09;16.50;99.90
49224;DHT22;35050;51.316;5.994;2022-09-09T04:21:38;16.50;99.90
49224;DHT22;35050;51.316;5.994;2022-09-09T04:24:05;16.50;99.90
49224;DHT22;35050;51.316;5.994;2022-09-09T04:26:31;16.50;99.90
49224;DHT22;35050;51.316;5.994;2022-09-09T04:28:57;16.60;99.90
49224;DHT22;35050;51.316;5.994;2022-09-09T04:31:23;16.60;99.90
49224;DHT22;35050;51.316;5.994;2022-09-09T04:33:50;16.60;99.90
49224;DHT22;35050;51.316;5.994;2022-09-09T04:36:17;16.70;99.90
49224;DHT22;35050;51.316;5.994;2022-09-09T04:38:43;16.70;99.90
49224;DHT22;35050;51.316;5.994;2022-09-09T04:41:10;16.60;99.90
49224;DHT22;35050;51.316;5.994;2022-09-09T04:43:37;16.70;99.90
49224;DHT22;35050;51.316;5.994;2022-09-09T04:46:02;16.80;99.90
49224;DHT22;35050;51.316;5.994;2022-09-09T04:48:28;16.60;99.90
49224;DHT22;35050;51.316;5.994;2022-09-09T04:50:58;16.70;99.90
49224;DHT22;35050;51.316;5.994;2022-09-09T04:53:25;16.80;99.90
49224;DHT22;35050;51.316;5.994;2022-09-09T04:55:52;16.70;99.90
49224;DHT22;35050;51.316;5.994;2022-09-09T04:58:18;16.70;99.90
49224;DHT22;35050;51.316;5.994;2022-09-09T05:00:44;16.70;99.90
49224;DHT22;35050;51.316;5.994;2022-09-09T05:03:10;16.80;99.90
49224;DHT22;35050;51.316;5.994;2022-09-09T05:05:36;16.80;99.90
49224;DHT22;35050;51.316;5.994;2022-09-09T05:08:07;16.80;99.90
49224;DHT22;35050;51.316;5.994;2022-09-09T05:10:36;16.80;99.90
49224;DHT22;35050;51.316;5.994;2022-09-09T05:13:01;16.70;99.90
49224;DHT22;35050;51.316;5.994;2022-09-09T05:15:27;16.70;99.90
49224;DHT22;35050;51.316;5.994;2022-09-09T05:18:00;16.60;99.90
49224;DHT22;35050;51.316;5.994;2022-09-09T05:20:27;16.60;99.90
49224;DHT22;35050;51.316;5.994;2022-09-09T05:22:54;16.60;99.90
49224;DHT22;35050;51.316;5.994;2022-09-09T05:25:20;16.70;99.90
49224;DHT22;35050;51.316;5.994;2022-09-09T05:27:48;16.70;99.90
49224;DHT22;35050;51.316;5.994;2022-09-09T05:30:15;16.70;99.90
49224;DHT22;35050;51.316;5.994;2022-09-09T05:32:40;16.60;99.90
49224;DHT22;35050;51.316;5.994;2022-09-09T05:35:06;16.70;99.90
49224;DHT22;35050;51.316;5.994;2022-09-09T05:37:32;16.70;99.90
49224;DHT22;35050;51.316;5.994;2022-09-09T05:39:58;16.70;99.90
49224;DHT22;35050;51.316;5.994;2022-09-09T05:42:24;16.70;99.90
49224;DHT22;35050;51.316;5.994;2022-09-09T05:44:50;16.70;99.90
49224;DHT22;35050;51.316;5.994;2022-09-09T05:47:16;16.70;99.90
49224;DHT22;35050;51.316;5.994;2022-09-09T05:49:42;16.60;99.90
49224;DHT22;35050;51.316;5.994;2022-09-09T05:52:09;16.70;99.90
49224;DHT22;35050;51.316;5.994;2022-09-09T05:54:35;16.70;99.90
49224;DHT22;35050;51.316;5.994;2022-09-09T05:57:02;16.70;99.90
49224;DHT22;35050;51.316;5.994;2022-09-09T05:59:28;16.80;99.90
49224;DHT22;35050;51.316;5.994;2022-09-09T06:01:53;16.80;99.90
49224;DHT22;35050;51.316;5.994;2022-09-09T06:04:19;16.70;99.90
49224;DHT22;35050;51.316;5.994;2022-09-09T06:06:47;16.80;99.90
49224;DHT22;35050;51.316;5.994;2022-09-09T06:09:14;16.70;99.90
49224;DHT22;35050;51.316;5.994;2022-09-09T06:11:41;16.80;99.90
49224;DHT22;35050;51.316;5.994;2022-09-09T06:14:07;16.90;99.90
49224;DHT22;35050;51.316;5.994;2022-09-09T06:16:34;16.80;99.90
49224;DHT22;35050;51.316;5.994;2022-09-09T06:19:00;16.90;99.90
49224;DHT22;35050;51.316;5.994;2022-09-09T06:21:34;16.80;99.90
49224;DHT22;35050;51.316;5.994;2022-09-09T06:24:03;16.80;99.90
49224;DHT22;35050;51.316;5.994;2022-09-09T06:26:36;16.80;99.90
49224;DHT22;35050;51.316;5.994;2022-09-09T06:29:03;16.80;99.90
49224;DHT22;35050;51.316;5.994;2022-09-09T06:31:31;17.10;99.90
49224;DHT22;35050;51.316;5.994;2022-09-09T06:33:59;17.10;99.90
49224;DHT22;35050;51.316;5.994;2022-09-09T06:36:26;16.90;99.90
49224;DHT22;35050;51.316;5.994;2022-09-09T06:38:52;17.10;99.90
49224;DHT22;35050;51.316;5.994;2022-09-09T06:41:21;17.10;99.90
49224;DHT22;35050;51.316;5.994;2022-09-09T06:43:47;17.00;99.90
49224;DHT22;35050;51.316;5.994;2022-09-09T06:46:15;17.00;99.90
49224;DHT22;35050;51.316;5.994;2022-09-09T06:48:42;17.00;99.90
49224;DHT22;35050;51.316;5.994;2022-09-09T06:51:12;17.10;99.90
49224;DHT22;35050;51.316;5.994;2022-09-09T06:53:39;17.20;99.90
49224;DHT22;35050;51.316;5.994;2022-09-09T06:58:40;17.10;99.90
49224;DHT22;35050;51.316;5.994;2022-09-09T07:01:09;17.10;99.90
49224;DHT22;35050;51.316;5.994;2022-09-09T07:03:35;17.20;99.90
49224;DHT22;35050;51.316;5.994;2022-09-09T07:06:02;17.30;99.90
49224;DHT22;35050;51.316;5.994;2022-09-09T07:08:29;17.50;99.90
49224;DHT22;35050;51.316;5.994;2022-09-09T07:11:04;17.40;99.90
49224;DHT22;35050;51.316;5.994;2022-09-09T07:13:31;17.50;99.90
49224;DHT22;35050;51.316;5.994;2022-09-09T07:16:09;17.50;99.90
49224;DHT22;35050;51.316;5.994;2022-09-09T07:18:35;17.40;99.90
49224;DHT22;35050;51.316;5.994;2022-09-09T07:21:03;17.30;99.90
49224;DHT22;35050;51.316;5.994;2022-09-09T07:23:30;17.50;99.90
49224;DHT22;35050;51.316;5.994;2022-09-09T07:25:57;17.30;99.90
49224;DHT22;35050;51.316;5.994;2022-09-09T07:28:23;17.60;99.90
49224;DHT22;35050;51.316;5.994;2022-09-09T07:30:57;17.60;99.90
49224;DHT22;35050;51.316;5.994;2022-09-09T07:33:24;17.60;99.90
49224;DHT22;35050;51.316;5.994;2022-09-09T07:35:52;17.70;99.90
49224;DHT22;35050;51.316;5.994;2022-09-09T07:38:18;17.70;99.90
49224;DHT22;35050;51.316;5.994;2022-09-09T07:40:44;17.60;99.90
49224;DHT22;35050;51.316;5.994;2022-09-09T07:43:10;17.60;99.90
49224;DHT22;35050;51.316;5.994;2022-09-09T07:45:38;17.70;99.90
49224;DHT22;35050;51.316;5.994;2022-09-09T07:48:06;17.80;99.90
49224;DHT22;35050;51.316;5.994;2022-09-09T07:50:31;18.00;99.90
49224;DHT22;35050;51.316;5.994;2022-09-09T07:52:57;18.00;99.90
49224;DHT22;35050;51.316;5.994;2022-09-09T07:55:23;18.00;99.90
49224;DHT22;35050;51.316;5.994;2022-09-09T07:57:53;17.90;99.90
49224;DHT22;35050;51.316;5.994;2022-09-09T08:00:19;18.00;99.90
49224;DHT22;35050;51.316;5.994;2022-09-09T08:02:47;18.00;99.90
49224;DHT22;35050;51.316;5.994;2022-09-09T08:05:13;18.00;99.90
49224;DHT22;35050;51.316;5.994;2022-09-09T08:07:40;17.90;99.90
49224;DHT22;35050;51.316;5.994;2022-09-09T08:10:06;18.00;99.90
49224;DHT22;35050;51.316;5.994;2022-09-09T08:12:32;18.10;99.90
49224;DHT22;35050;51.316;5.994;2022-09-09T08:14:58;18.00;99.90
49224;DHT22;35050;51.316;5.994;2022-09-09T08:17:23;18.10;99.90
49224;DHT22;35050;51.316;5.994;2022-09-09T08:19:49;18.10;99.90
49224;DHT22;35050;51.316;5.994;2022-09-09T08:22:15;18.30;99.90
49224;DHT22;35050;51.316;5.994;2022-09-09T08:24:40;18.30;99.90
49224;DHT22;35050;51.316;5.994;2022-09-09T08:27:06;18.20;99.90
49224;DHT22;35050;51.316;5.994;2022-09-09T08:29:32;18.20;99.90
49224;DHT22;35050;51.316;5.994;2022-09-09T08:31:58;18.40;99.90
49224;DHT22;35050;51.316;5.994;2022-09-09T08:34:25;18.50;99.90
49224;DHT22;35050;51.316;5.994;2022-09-09T08:36:53;18.90;99.90
49224;DHT22;35050;51.316;5.994;2022-09-09T08:39:20;18.80;99.90
49224;DHT22;35050;51.316;5.994;2022-09-09T08:42:17;18.90;99.90
49224;DHT22;35050;51.316;5.994;2022-09-09T08:55:58;18.60;99.90
49224;DHT22;35050;51.316;5.994;2022-09-09T09:06:47;18.60;99.90
49224;DHT22;35050;51.316;5.994;2022-09-09T09:12:25;18.60;99.90
49224;DHT22;35050;51.316;5.994;2022-09-09T09:14:52;18.50;99.90
49224;DHT22;35050;51.316;5.994;2022-09-09T09:17:22;18.50;99.90
49224;DHT22;35050;51.316;5.994;2022-09-09T09:19:49;18.60;99.90
49224;DHT22;35050;51.316;5.994;2022-09-09T09:22:40;18.70;99.90
49224;DHT22;35050;51.316;5.994;2022-09-09T09:25:34;18.50;99.90
49224;DHT22;35050;51.316;5.994;2022-09-09T09:28:07;18.60;99.90
49224;DHT22;35050;51.316;5.994;2022-09-09T09:30:56;18.60;99.90
49224;DHT22;35050;51.316;5.994;2022-09-09T09:35:56;18.60;99.90
49224;DHT22;35050;51.316;5.994;2022-09-09T09:38:24;18.50;99.90
49224;DHT22;35050;51.316;5.994;2022-09-09T09:40:52;18.30;99.90
49224;DHT22;35050;51.316;5.994;2022-09-09T09:43:37;18.40;99.90
49224;DHT22;35050;51.316;5.994;2022-09-09T09:46:17;18.50;99.90
49224;DHT22;35050;51.316;5.994;2022-09-09T09:48:44;18.70;99.90
49224;DHT22;35050;51.316;5.994;2022-09-09T09:51:13;18.90;99.90
49224;DHT22;35050;51.316;5.994;2022-09-09T09:53:42;18.90;99.90
49224;DHT22;35050;51.316;5.994;2022-09-09T09:56:10;18.80;99.90
49224;DHT22;35050;51.316;5.994;2022-09-09T09:58:56;18.80;99.90
49224;DHT22;35050;51.316;5.994;2022-09-09T10:01:23;18.80;99.90
49224;DHT22;35050;51.316;5.994;2022-09-09T10:04:02;18.80;99.90
49224;DHT22;35050;51.316;5.994;2022-09-09T10:06:34;18.80;99.90
49224;DHT22;35050;51.316;5.994;2022-09-09T10:09:02;18.60;99.90
49224;DHT22;35050;51.316;5.994;2022-09-09T10:11:39;18.70;99.90
49224;DHT22;35050;51.316;5.994;2022-09-09T10:19:32;18.70;99.90
49224;DHT22;35050;51.316;5.994;2022-09-09T10:36:18;18.80;99.90
49224;DHT22;35050;51.316;5.994;2022-09-09T10:38:54;18.70;99.90
49224;DHT22;35050;51.316;5.994;2022-09-09T10:42:06;18.80;99.90
49224;DHT22;35050;51.316;5.994;2022-09-09T10:53:08;18.60;99.90
49224;DHT22;35050;51.316;5.994;2022-09-09T10:55:44;18.60;99.90
49224;DHT22;35050;51.316;5.994;2022-09-09T10:58:17;18.70;99.90
49224;DHT22;35050;51.316;5.994;2022-09-09T11:00:57;18.60;99.90
49224;DHT22;35050;51.316;5.994;2022-09-09T11:03:28;18.70;99.90
49224;DHT22;35050;51.316;5.994;2022-09-09T11:06:05;18.60;99.90
49224;DHT22;35050;51.316;5.994;2022-09-09T11:08:34;18.50;99.90
49224;DHT22;35050;51.316;5.994;2022-09-09T11:11:17;18.50;99.90
49224;DHT22;35050;51.316;5.994;2022-09-09T11:13:59;18.60;99.90
49224;DHT22;35050;51.316;5.994;2022-09-09T11:16:35;18.70;99.90
49224;DHT22;35050;51.316;5.994;2022-09-09T11:21:48;18.60;99.90
49224;DHT22;35050;51.316;5.994;2022-09-09T11:24:26;18.60;99.90
49224;DHT22;35050;51.316;5.994;2022-09-09T11:27:01;18.60;99.90
49224;DHT22;35050;51.316;5.994;2022-09-09T11:30:12;18.40;99.90
49224;DHT22;35050;51.316;5.994;2022-09-09T11:40:38;18.30;99.90
49224;DHT22;35050;51.316;5.994;2022-09-09T11:43:24;18.00;99.90
49224;DHT22;35050;51.316;5.994;2022-09-09T11:45:54;17.80;99.90
49224;DHT22;35050;51.316;5.994;2022-09-09T11:51:11;17.70;99.90
49224;DHT22;35050;51.316;5.994;2022-09-09T11:53:52;18.00;99.90
49224;DHT22;35050;51.316;5.994;2022-09-09T11:56:33;17.90;99.90
49224;DHT22;35050;51.316;5.994;2022-09-09T11:59:02;18.40;99.90
49224;DHT22;35050;51.316;5.994;2022-09-09T12:01:37;18.70;99.90
49224;DHT22;35050;51.316;5.994;2022-09-09T12:06:50;19.20;99.90
49224;DHT22;35050;51.316;5.994;2022-09-09T12:09:29;19.10;99.90
49224;DHT22;35050;51.316;5.994;2022-09-09T12:17:20;19.40;99.90
49224;DHT22;35050;51.316;5.994;2022-09-09T12:19:47;19.20;99.90
49224;DHT22;35050;51.316;5.994;2022-09-09T12:22:45;19.20;99.90
49224;DHT22;35050;51.316;5.994;2022-09-09T12:31:01;19.40;99.90
49224;DHT22;35050;51.316;5.994;2022-09-09T12:33:38;19.50;99.90
49224;DHT22;35050;51.316;5.994;2022-09-09T12:36:12;19.80;99.90
49224;DHT22;35050;51.316;5.994;2022-09-09T12:38:40;19.60;99.90
49224;DHT22;35050;51.316;5.994;2022-09-09T12:41:22;19.70;99.90
49224;DHT22;35050;51.316;5.994;2022-09-09T12:43:47;19.80;99.90
49224;DHT22;35050;51.316;5.994;2022-09-09T12:46:42;19.90;99.90
49224;DHT22;35050;51.316;5.994;2022-09-09T12:49:28;20.20;99.90
49224;DHT22;35050;51.316;5.994;2022-09-09T12:51:56;20.10;99.90
49224;DHT22;35050;51.316;5.994;2022-09-09T12:54:23;19.80;99.90
49224;DHT22;35050;51.316;5.994;2022-09-09T12:56:49;20.00;99.90
49224;DHT22;35050;51.316;5.994;2022-09-09T12:59:27;20.20;99.90
49224;DHT22;35050;51.316;5.994;2022-09-09T13:02:00;20.00;99.90
49224;DHT22;35050;51.316;5.994;2022-09-09T13:04:26;20.00;99.90
49224;DHT22;35050;51.316;5.994;2022-09-09T13:06:52;19.70;99.90
49224;DHT22;35050;51.316;5.994;2022-09-09T13:09:18;19.80;99.90
49224;DHT22;35050;51.316;5.994;2022-09-09T13:11:50;20.00;99.90
49224;DHT22;35050;51.316;5.994;2022-09-09T13:14:32;20.30;99.90
49224;DHT22;35050;51.316;5.994;2022-09-09T13:17:01;20.30;99.90
49224;DHT22;35050;51.316;5.994;2022-09-09T13:19:38;20.20;99.90
49224;DHT22;35050;51.316;5.994;2022-09-09T13:24:47;19.80;99.90
49224;DHT22;35050;51.316;5.994;2022-09-09T13:29:56;20.40;99.90
49224;DHT22;35050;51.316;5.994;2022-09-09T13:32:23;20.70;99.90
49224;DHT22;35050;51.316;5.994;2022-09-09T13:34:53;20.20;99.90
49224;DHT22;35050;51.316;5.994;2022-09-09T13:37:36;20.10;99.90
49224;DHT22;35050;51.316;5.994;2022-09-09T13:40:04;19.90;99.90
49224;DHT22;35050;51.316;5.994;2022-09-09T13:42:39;20.00;99.90
49224;DHT22;35050;51.316;5.994;2022-09-09T13:45:06;19.60;99.90
49224;DHT22;35050;51.316;5.994;2022-09-09T13:47:33;19.70;99.90
49224;DHT22;35050;51.316;5.994;2022-09-09T13:50:23;19.60;99.90
49224;DHT22;35050;51.316;5.994;2022-09-09T13:52:52;19.60;99.90
49224;DHT22;35050;51.316;5.994;2022-09-09T13:55:19;19.70;99.90
49224;DHT22;35050;51.316;5.994;2022-09-09T13:57:57;20.00;99.90
49224;DHT22;35050;51.316;5.994;2022-09-09T14:00:23;20.50;99.90
49224;DHT22;35050;51.316;5.994;2022-09-09T14:02:50;20.70;99.90
49224;DHT22;35050;51.316;5.994;2022-09-09T14:05:17;21.00;99.90
49224;DHT22;35050;51.316;5.994;2022-09-09T14:07:44;21.00;99.90
49224;DHT22;35050;51.316;5.994;2022-09-09T14:10:11;21.10;99.90
49224;DHT22;35050;51.316;5.994;2022-09-09T14:12:37;21.20;99.90
49224;DHT22;35050;51.316;5.994;2022-09-09T14:15:04;21.00;99.90
49224;DHT22;35050;51.316;5.994;2022-09-09T14:17:32;20.70;99.90
49224;DHT22;35050;51.316;5.994;2022-09-09T14:19:58;20.90;99.90
49224;DHT22;35050;51.316;5.994;2022-09-09T14:22:25;20.80;99.90
49224;DHT22;35050;51.316;5.994;2022-09-09T14:24:51;20.90;99.90
49224;DHT22;35050;51.316;5.994;2022-09-09T14:27:16;21.50;99.90
49224;DHT22;35050;51.316;5.994;2022-09-09T14:29:44;22.10;99.90
49224;DHT22;35050;51.316;5.994;2022-09-09T14:32:11;22.50;99.90
49224;DHT22;35050;51.316;5.994;2022-09-09T14:34:37;22.60;99.90
49224;DHT22;35050;51.316;5.994;2022-09-09T14:37:02;22.60;99.90
49224;DHT22;35050;51.316;5.994;2022-09-09T14:39:28;22.40;99.90
49224;DHT22;35050;51.316;5.994;2022-09-09T14:41:54;22.50;99.90
49224;DHT22;35050;51.316;5.994;2022-09-09T14:44:20;22.20;99.90
49224;DHT22;35050;51.316;5.994;2022-09-09T14:46:46;22.10;99.90
49224;DHT22;35050;51.316;5.994;2022-09-09T14:49:11;22.10;99.90
49224;DHT22;35050;51.316;5.994;2022-09-09T14:51:38;22.40;99.90
49224;DHT22;35050;51.316;5.994;2022-09-09T14:54:04;21.50;99.90
49224;DHT22;35050;51.316;5.994;2022-09-09T14:56:32;21.80;99.90
49224;DHT22;35050;51.316;5.994;2022-09-09T14:59:00;22.30;99.90
49224;DHT22;35050;51.316;5.994;2022-09-09T15:01:29;22.30;99.90
49224;DHT22;35050;51.316;5.994;2022-09-09T15:03:58;22.20;99.90
49224;DHT22;35050;51.316;5.994;2022-09-09T15:06:25;22.30;99.90
49224;DHT22;35050;51.316;5.994;2022-09-09T15:08:52;22.10;99.90
49224;DHT22;35050;51.316;5.994;2022-09-09T15:11:19;21.40;99.90
49224;DHT22;35050;51.316;5.994;2022-09-09T15:13:46;21.40;99.90
49224;DHT22;35050;51.316;5.994;2022-09-09T15:16:17;21.80;99.90
49224;DHT22;35050;51.316;5.994;2022-09-09T15:18:44;21.80;99.90
49224;DHT22;35050;51.316;5.994;2022-09-09T15:21:15;21.70;99.90
49224;DHT22;35050;51.316;5.994;2022-09-09T15:23:42;22.00;99.90
49224;DHT22;35050;51.316;5.994;2022-09-09T15:26:08;21.80;99.90
49224;DHT22;35050;51.316;5.994;2022-09-09T15:28:36;21.60;99.90
49224;DHT22;35050;51.316;5.994;2022-09-09T15:31:06;21.60;99.90
49224;DHT22;35050;51.316;5.994;2022-09-09T15:33:33;21.60;99.90
49224;DHT22;35050;51.316;5.994;2022-09-09T15:35:59;21.80;99.90
49224;DHT22;35050;51.316;5.994;2022-09-09T15:38:25;21.60;99.90
49224;DHT22;35050;51.316;5.994;2022-09-09T15:40:56;21.70;99.90
49224;DHT22;35050;51.316;5.994;2022-09-09T15:43:23;21.30;99.90
49224;DHT22;35050;51.316;5.994;2022-09-09T15:45:56;21.60;99.90
49224;DHT22;35050;51.316;5.994;2022-09-09T15:48:31;21.40;99.90
49224;DHT22;35050;51.316;5.994;2022-09-09T15:51:02;21.70;99.90
49224;DHT22;35050;51.316;5.994;2022-09-09T15:53:29;21.40;99.90
49224;DHT22;35050;51.316;5.994;2022-09-09T15:55:55;21.40;99.90
49224;DHT22;35050;51.316;5.994;2022-09-09T15:58:21;21.20;99.90
49224;DHT22;35050;51.316;5.994;2022-09-09T16:00:47;21.10;99.90
49224;DHT22;35050;51.316;5.994;2022-09-09T16:03:13;21.20;99.90
49224;DHT22;35050;51.316;5.994;2022-09-09T16:05:38;21.20;99.90
49224;DHT22;35050;51.316;5.994;2022-09-09T16:08:04;21.30;99.90
49224;DHT22;35050;51.316;5.994;2022-09-09T16:10:29;21.20;99.90
49224;DHT22;35050;51.316;5.994;2022-09-09T16:12:56;21.10;99.90
49224;DHT22;35050;51.316;5.994;2022-09-09T16:15:21;21.10;99.90
49224;DHT22;35050;51.316;5.994;2022-09-09T16:17:48;21.30;99.90
49224;DHT22;35050;51.316;5.994;2022-09-09T16:20:14;21.10;99.90
49224;DHT22;35050;51.316;5.994;2022-09-09T16:22:40;21.10;99.90
49224;DHT22;35050;51.316;5.994;2022-09-09T16:25:06;21.10;99.90
49224;DHT22;35050;51.316;5.994;2022-09-09T16:27:31;21.10;99.90
49224;DHT22;35050;51.316;5.994;2022-09-09T16:29:57;21.00;99.90
49224;DHT22;35050;51.316;5.994;2022-09-09T16:32:24;21.00;99.90
49224;DHT22;35050;51.316;5.994;2022-09-09T16:34:50;20.90;99.90
49224;DHT22;35050;51.316;5.994;2022-09-09T16:37:15;20.70;99.90
49224;DHT22;35050;51.316;5.994;2022-09-09T16:39:41;20.60;99.90
49224;DHT22;35050;51.316;5.994;2022-09-09T16:42:07;20.60;99.90
49224;DHT22;35050;51.316;5.994;2022-09-09T16:44:32;20.70;99.90
49224;DHT22;35050;51.316;5.994;2022-09-09T16:46:58;20.50;99.90
49224;DHT22;35050;51.316;5.994;2022-09-09T16:49:24;20.40;99.90
49224;DHT22;35050;51.316;5.994;2022-09-09T16:51:50;20.50;99.90
49224;DHT22;35050;51.316;5.994;2022-09-09T16:54:19;20.50;99.90
49224;DHT22;35050;51.316;5.994;2022-09-09T16:56:47;20.60;99.90
49224;DHT22;35050;51.316;5.994;2022-09-09T16:59:15;20.50;99.90
49224;DHT22;35050;51.316;5.994;2022-09-09T17:01:42;20.40;99.90
49224;DHT22;35050;51.316;5.994;2022-09-09T17:04:14;20.30;99.90
49224;DHT22;35050;51.316;5.994;2022-09-09T17:06:41;20.50;99.90
49224;DHT22;35050;51.316;5.994;2022-09-09T17:09:09;20.40;99.90
49224;DHT22;35050;51.316;5.994;2022-09-09T17:11:36;20.40;99.90
49224;DHT22;35050;51.316;5.994;2022-09-09T17:14:03;20.50;99.90
49224;DHT22;35050;51.316;5.994;2022-09-09T17:16:32;20.20;99.90
49224;DHT22;35050;51.316;5.994;2022-09-09T17:18:59;20.40;99.90
49224;DHT22;35050;51.316;5.994;2022-09-09T17:21:27;20.20;99.90
49224;DHT22;35050;51.316;5.994;2022-09-09T17:23:54;20.10;99.90
49224;DHT22;35050;51.316;5.994;2022-09-09T17:26:21;20.10;99.90
49224;DHT22;35050;51.316;5.994;2022-09-09T17:28:47;20.10;99.90
49224;DHT22;35050;51.316;5.994;2022-09-09T17:31:15;20.20;99.90
49224;DHT22;35050;51.316;5.994;2022-09-09T17:33:44;20.10;99.90
49224;DHT22;35050;51.316;5.994;2022-09-09T17:36:15;20.10;99.90
49224;DHT22;35050;51.316;5.994;2022-09-09T17:38:41;19.60;99.90
49224;DHT22;35050;51.316;5.994;2022-09-09T17:41:11;19.60;99.90
49224;DHT22;35050;51.316;5.994;2022-09-09T17:43:37;19.20;99.90
49224;DHT22;35050;51.316;5.994;2022-09-09T17:46:11;19.00;99.90
49224;DHT22;35050;51.316;5.994;2022-09-09T17:48:38;18.70;99.90
49224;DHT22;35050;51.316;5.994;2022-09-09T17:51:08;18.80;99.90
49224;DHT22;35050;51.316;5.994;2022-09-09T17:53:42;18.70;99.90